Time;durP1;ratioP1;P1;durP2;ratioP2;P2;SDS_P1;SDS_P2;PMS_P1;PMS_P2;Temp;Humidity;BMP_temperature;BMP_pressure;BME280_temperature;BME280_humidity;BME280_pressure;Samples;Min_cycle;Max_cycle;Signal;HPM_P1;HPM_P2
2022/04/28 00:00:28;;;;;;;2.60;2.40;;;7.90;99.90;;;;;;5093422;28;20512;-45
2022/04/28 00:02:56;;;;;;;3.07;2.77;;;7.90;99.90;;;;;;5092800;28;20499;-45
2022/04/28 00:05:25;;;;;;;3.03;2.60;;;7.60;99.90;;;;;;5093492;28;20444;-46
2022/04/28 00:07:52;;;;;;;3.73;2.83;;;7.70;99.90;;;;;;5093329;28;20463;-45
2022/04/28 00:10:20;;;;;;;3.87;3.20;;;7.50;99.90;;;;;;5093240;28;20443;-45
2022/04/28 00:12:47;;;;;;;3.60;3.20;;;7.40;99.90;;;;;;5092777;28;21059;-46
2022/04/28 00:15:14;;;;;;;4.97;2.87;;;7.60;99.90;;;;;;5093068;28;20884;-45
2022/04/28 00:17:41;;;;;;;3.87;2.97;;;7.60;99.90;;;;;;5093101;28;20885;-46
2022/04/28 00:20:09;;;;;;;2.70;2.50;;;7.60;99.90;;;;;;5092765;28;20813;-46
2022/04/28 00:22:37;;;;;;;3.13;2.83;;;7.40;99.90;;;;;;5093062;28;20485;-46
2022/04/28 00:25:05;;;;;;;3.30;2.50;;;7.50;99.90;;;;;;5092704;28;20766;-45
2022/04/28 00:27:33;;;;;;;3.00;2.70;;;7.50;99.90;;;;;;5092825;28;20534;-46
2022/04/28 00:30:00;;;;;;;4.00;2.90;;;7.50;99.90;;;;;;5092719;28;20483;-46
2022/04/28 00:32:27;;;;;;;3.17;2.90;;;7.60;99.90;;;;;;5091770;28;20960;-45
2022/04/28 00:34:54;;;;;;;3.50;2.67;;;7.70;99.90;;;;;;5092618;28;20478;-46
2022/04/28 00:37:21;;;;;;;3.43;3.13;;;7.50;99.90;;;;;;5092646;28;20536;-46
2022/04/28 00:39:51;;;;;;;4.27;3.37;;;7.20;99.90;;;;;;5092651;28;20474;-45
2022/04/28 00:42:19;;;;;;;3.10;2.80;;;7.40;99.90;;;;;;5092319;28;20934;-46
2022/04/28 00:44:46;;;;;;;3.00;2.70;;;7.50;99.90;;;;;;5092447;28;20872;-46
2022/04/28 00:47:14;;;;;;;3.30;2.53;;;7.60;99.90;;;;;;5092632;28;20459;-45
2022/04/28 00:52:27;;;;;;;3.63;3.33;;;7.60;99.90;;;;;;5092213;28;20413;-46
2022/04/28 00:54:57;;;;;;;3.00;2.80;;;7.60;99.90;;;;;;5092143;28;20940;-45
2022/04/28 00:57:25;;;;;;;2.83;2.30;;;7.60;99.90;;;;;;5092126;28;20471;-45
2022/04/28 00:59:52;;;;;;;3.10;2.70;;;7.60;99.90;;;;;;5091862;28;20439;-46
2022/04/28 01:02:20;;;;;;;4.23;2.67;;;7.60;99.90;;;;;;5091945;28;20451;-46
2022/04/28 01:04:48;;;;;;;2.97;2.67;;;7.50;99.90;;;;;;5091867;28;20475;-46
2022/04/28 01:07:17;;;;;;;3.40;2.40;;;7.60;99.90;;;;;;5092039;28;20510;-45
2022/04/28 01:09:44;;;;;;;2.87;2.63;;;7.50;99.90;;;;;;5092092;28;20448;-46
2022/04/28 01:12:15;;;;;;;2.30;2.10;;;7.30;99.90;;;;;;5091928;28;20449;-46
2022/04/28 01:14:43;;;;;;;2.70;2.40;;;7.20;99.90;;;;;;5092098;28;20470;-46
2022/04/28 01:17:10;;;;;;;3.80;2.70;;;7.10;99.90;;;;;;5091770;28;20498;-46
2022/04/28 01:19:37;;;;;;;3.30;2.73;;;6.90;99.90;;;;;;5091678;28;20440;-46
2022/04/28 01:22:06;;;;;;;3.17;2.87;;;6.60;99.90;;;;;;5092199;28;20473;-46
2022/04/28 01:24:33;;;;;;;3.47;2.90;;;6.80;99.90;;;;;;5091726;28;20497;-46
2022/04/28 01:27:01;;;;;;;3.33;2.57;;;6.90;99.90;;;;;;5091639;28;20487;-46
2022/04/28 01:29:31;;;;;;;2.90;2.27;;;7.10;99.90;;;;;;5091656;28;20530;-46
2022/04/28 01:31:58;;;;;;;3.90;3.47;;;7.20;99.90;;;;;;5090903;28;20539;-46
2022/04/28 01:34:25;;;;;;;3.20;2.70;;;6.90;99.90;;;;;;5091608;28;20912;-46
2022/04/28 01:36:52;;;;;;;3.43;2.73;;;6.70;99.90;;;;;;5091387;28;20460;-46
2022/04/28 01:39:21;;;;;;;5.47;3.30;;;6.60;99.90;;;;;;5091464;28;20439;-46
2022/04/28 01:41:48;;;;;;;3.10;2.80;;;6.40;99.90;;;;;;5091467;28;20801;-46
2022/04/28 01:44:15;;;;;;;3.77;3.33;;;6.60;99.90;;;;;;5090758;28;20568;-45
2022/04/28 01:46:43;;;;;;;4.60;2.73;;;6.90;99.90;;;;;;5091768;28;20554;-46
2022/04/28 01:49:10;;;;;;;3.03;2.83;;;6.70;99.90;;;;;;5091595;28;20488;-46
2022/04/28 01:57:07;;;;;;;3.10;2.70;;;7.30;99.90;;;;;;5091181;28;21017;-45
2022/04/28 01:59:34;;;;;;;3.20;2.37;;;7.30;99.90;;;;;;5091030;28;20526;-46
2022/04/28 02:02:01;;;;;;;3.13;2.83;;;7.40;99.90;;;;;;5091316;28;20450;-45
2022/04/28 02:04:28;;;;;;;3.43;2.93;;;7.10;99.90;;;;;;5091014;28;20439;-45
2022/04/28 02:06:55;;;;;;;3.17;2.87;;;7.00;99.90;;;;;;5091197;28;21040;-45
2022/04/28 02:09:23;;;;;;;3.27;2.97;;;7.10;99.90;;;;;;5091378;28;20443;-46
2022/04/28 02:11:50;;;;;;;2.90;2.53;;;7.30;99.90;;;;;;5091063;28;20806;-45
2022/04/28 02:14:17;;;;;;;3.10;2.80;;;7.30;99.90;;;;;;5090917;28;20540;-45
2022/04/28 02:16:44;;;;;;;3.07;2.80;;;7.30;99.90;;;;;;5091415;28;20514;-46
2022/04/28 02:19:11;;;;;;;3.30;2.77;;;7.40;99.90;;;;;;5091306;28;20480;-45
2022/04/28 02:21:38;;;;;;;2.53;2.00;;;7.30;99.90;;;;;;5091127;28;20485;-46
2022/04/28 02:24:05;;;;;;;3.57;2.87;;;7.30;99.90;;;;;;5091024;28;20940;-46
2022/04/28 02:26:34;;;;;;;3.80;3.50;;;7.30;99.90;;;;;;5090993;28;20903;-45
2022/04/28 02:29:01;;;;;;;2.67;2.40;;;7.40;99.90;;;;;;5091384;28;20701;-45
2022/04/28 02:31:28;;;;;;;2.60;2.27;;;7.40;99.90;;;;;;5090782;28;20519;-45
2022/04/28 02:33:55;;;;;;;4.60;2.60;;;7.40;99.90;;;;;;5090738;28;20570;-45
2022/04/28 02:36:22;;;;;;;2.87;2.43;;;7.40;99.90;;;;;;5091109;28;20816;-45
2022/04/28 02:38:49;;;;;;;2.50;2.13;;;7.30;99.90;;;;;;5090848;28;20598;-45
2022/04/28 02:41:19;;;;;;;3.10;2.80;;;7.20;99.90;;;;;;5090827;28;20478;-46
2022/04/28 02:43:48;;;;;;;3.10;2.40;;;7.20;99.90;;;;;;5090607;28;20471;-45
2022/04/28 02:46:15;;;;;;;4.03;2.87;;;7.20;99.90;;;;;;5091096;28;20463;-45
2022/04/28 02:48:42;;;;;;;3.10;2.90;;;7.20;99.90;;;;;;5090875;28;20455;-45
2022/04/28 02:51:09;;;;;;;3.33;2.77;;;7.20;99.90;;;;;;5090914;28;20439;-46
2022/04/28 02:53:36;;;;;;;3.10;2.80;;;7.00;99.90;;;;;;5090946;28;20941;-45
2022/04/28 02:56:03;;;;;;;3.37;3.07;;;6.80;99.90;;;;;;5094531;28;20504;-45
2022/04/28 02:58:30;;;;;;;3.27;2.70;;;6.90;99.90;;;;;;5094266;28;20920;-46
2022/04/28 03:00:59;;;;;;;2.83;2.43;;;7.00;99.90;;;;;;5094718;28;20480;-45
2022/04/28 03:03:26;;;;;;;3.20;2.90;;;6.90;99.90;;;;;;5094459;28;20436;-45
2022/04/28 03:11:21;;;;;;;3.07;2.67;;;6.80;99.90;;;;;;5094544;28;20454;-45
2022/04/28 03:13:48;;;;;;;3.93;3.50;;;6.90;99.90;;;;;;5094027;28;20479;-45
2022/04/28 03:16:17;;;;;;;3.77;3.00;;;6.90;99.90;;;;;;5094444;28;20439;-45
2022/04/28 03:18:45;;;;;;;3.40;2.93;;;6.90;99.90;;;;;;5094480;28;20482;-46
2022/04/28 03:21:12;;;;;;;3.43;3.10;;;6.90;99.90;;;;;;5094067;28;20440;-46
2022/04/28 03:23:39;;;;;;;2.53;2.33;;;6.90;99.90;;;;;;5093825;28;20808;-46
2022/04/28 03:26:06;;;;;;;3.30;2.90;;;6.10;99.90;;;;;;5094141;28;20475;-45
2022/04/28 03:28:35;;;;;;;3.70;2.80;;;6.20;99.90;;;;;;5093953;28;20893;-46
2022/04/28 03:31:03;;;;;;;3.40;2.93;;;6.30;99.90;;;;;;5093485;28;20452;-46
2022/04/28 03:33:32;;;;;;;3.80;3.30;;;6.40;99.90;;;;;;5093702;28;20880;-45
2022/04/28 03:35:59;;;;;;;3.10;2.83;;;6.30;99.90;;;;;;5093866;28;20932;-45
2022/04/28 03:38:26;;;;;;;3.20;2.90;;;6.30;99.90;;;;;;5093798;28;20532;-45
2022/04/28 03:40:53;;;;;;;3.40;3.20;;;6.40;99.90;;;;;;5093979;28;20811;-45
2022/04/28 03:43:20;;;;;;;3.97;2.97;;;6.40;99.90;;;;;;5093403;28;20471;-45
2022/04/28 03:45:47;;;;;;;3.00;2.80;;;6.50;99.90;;;;;;5093501;28;20435;-45
2022/04/28 03:48:16;;;;;;;2.73;2.50;;;6.50;99.90;;;;;;5093713;28;20470;-46
2022/04/28 03:50:44;;;;;;;3.47;3.17;;;6.40;99.90;;;;;;5093846;28;20466;-45
2022/04/28 03:53:11;;;;;;;3.17;2.70;;;6.30;99.90;;;;;;5093609;28;20443;-46
2022/04/28 03:55:38;;;;;;;4.87;2.93;;;6.40;99.90;;;;;;5093753;28;20482;-45
2022/04/28 03:58:05;;;;;;;4.83;2.50;;;6.40;99.90;;;;;;5092992;28;20472;-46
2022/04/28 04:00:32;;;;;;;3.60;2.70;;;6.40;99.90;;;;;;5093472;28;20527;-45
2022/04/28 04:02:59;;;;;;;3.07;2.80;;;6.40;99.90;;;;;;5093171;28;20871;-46
2022/04/28 04:05:26;;;;;;;2.57;2.30;;;6.40;99.90;;;;;;5092827;28;20461;-46
2022/04/28 04:07:54;;;;;;;3.10;2.57;;;6.50;99.90;;;;;;5093408;28;20519;-45
2022/04/28 04:10:21;;;;;;;3.00;2.70;;;6.50;99.90;;;;;;5093365;28;20527;-45
2022/04/28 04:12:48;;;;;;;3.97;2.90;;;6.60;99.90;;;;;;5092985;28;20439;-46
2022/04/28 04:15:15;;;;;;;2.70;2.50;;;6.60;99.90;;;;;;5092953;28;20524;-45
2022/04/28 04:17:43;;;;;;;4.23;3.83;;;6.60;99.90;;;;;;5092923;28;20498;-45
2022/04/28 04:20:11;;;;;;;3.57;3.27;;;6.70;99.90;;;;;;5093271;28;20475;-46
2022/04/28 04:22:38;;;;;;;5.20;3.57;;;6.70;99.90;;;;;;5092708;28;20492;-45
2022/04/28 04:25:07;;;;;;;3.43;2.77;;;6.80;99.90;;;;;;5092916;28;20439;-46
2022/04/28 04:27:35;;;;;;;3.93;2.83;;;6.70;99.90;;;;;;5092863;28;20987;-46
2022/04/28 04:32:17;;;;;;;5.43;4.93;;;6.80;99.90;;;;;;5092811;28;20466;-46
2022/04/28 04:32:48;;;;;;;4.93;3.50;;;6.90;99.90;;;;;;5092077;28;20785;-45
2022/04/28 04:35:16;;;;;;;3.83;3.53;;;6.80;99.90;;;;;;5092633;28;20554;-45
2022/04/28 04:37:43;;;;;;;4.60;3.60;;;6.80;99.90;;;;;;5092979;28;20881;-45
2022/04/28 04:40:13;;;;;;;2.63;2.40;;;6.60;99.90;;;;;;5092756;28;20475;-46
2022/04/28 04:42:40;;;;;;;3.20;2.90;;;6.70;99.90;;;;;;5092408;28;20493;-46
2022/04/28 04:45:09;;;;;;;5.00;4.00;;;6.70;99.90;;;;;;5092725;28;20481;-46
2022/04/28 04:47:36;;;;;;;3.60;3.13;;;6.90;99.90;;;;;;5092509;28;20467;-45
2022/04/28 04:50:04;;;;;;;3.10;2.70;;;6.90;99.90;;;;;;5092272;28;20455;-45
2022/04/28 04:52:31;;;;;;;3.73;3.43;;;6.80;99.90;;;;;;5092347;28;20508;-46
2022/04/28 04:54:58;;;;;;;3.10;2.80;;;6.80;99.90;;;;;;5092491;28;20509;-45
2022/04/28 04:57:26;;;;;;;3.30;2.70;;;6.90;99.90;;;;;;5092087;28;20524;-46
2022/04/28 04:59:54;;;;;;;4.50;2.83;;;7.00;99.90;;;;;;5092122;28;20444;-45
2022/04/28 05:02:23;;;;;;;4.30;3.90;;;7.10;99.90;;;;;;5091941;28;20542;-45
2022/04/28 05:04:50;;;;;;;3.93;3.63;;;7.00;99.90;;;;;;5092291;28;20439;-45
2022/04/28 05:07:17;;;;;;;4.30;3.30;;;6.80;99.90;;;;;;5092140;28;20531;-45
2022/04/28 05:09:44;;;;;;;4.43;3.90;;;6.10;99.90;;;;;;5092076;28;20821;-46
2022/04/28 05:12:11;;;;;;;5.23;4.73;;;6.30;99.90;;;;;;5091522;28;20467;-46
2022/04/28 05:14:39;;;;;;;4.50;4.10;;;5.70;99.90;;;;;;5091407;28;21034;-45
2022/04/28 05:17:06;;;;;;;3.30;3.00;;;5.70;99.90;;;;;;5091467;28;20494;-45
2022/04/28 05:19:34;;;;;;;5.57;4.37;;;6.10;99.90;;;;;;5091476;28;20991;-46
2022/04/28 05:22:01;;;;;;;4.23;3.83;;;6.40;99.90;;;;;;5091165;28;20439;-45
2022/04/28 05:24:28;;;;;;;5.53;4.17;;;6.40;99.90;;;;;;5090950;28;20438;-45
2022/04/28 05:26:55;;;;;;;5.40;4.20;;;6.60;99.90;;;;;;5090841;28;20496;-45
2022/04/28 05:29:22;;;;;;;4.47;3.97;;;6.70;99.90;;;;;;5090432;28;20489;-45
2022/04/28 05:31:50;;;;;;;4.60;3.87;;;6.90;99.90;;;;;;5090711;28;20528;-45
2022/04/28 05:34:17;;;;;;;3.80;3.50;;;6.90;99.90;;;;;;5090787;28;20524;-45
2022/04/28 05:36:45;;;;;;;3.67;3.37;;;6.80;99.90;;;;;;5090890;28;20478;-45
2022/04/28 05:39:12;;;;;;;3.70;3.40;;;6.50;99.90;;;;;;5090548;28;21088;-46
2022/04/28 05:41:40;;;;;;;28.33;6.80;;;6.60;99.90;;;;;;5091857;28;20451;-45
2022/04/28 05:46:53;;;;;;;5.97;4.60;;;6.80;99.90;;;;;;5091243;28;20584;-45
2022/04/28 05:49:21;;;;;;;6.33;3.30;;;6.90;99.90;;;;;;5090778;28;20460;-45
2022/04/28 05:51:48;;;;;;;4.03;3.40;;;6.90;99.90;;;;;;5091077;28;20500;-45
2022/04/28 05:54:15;;;;;;;6.00;3.57;;;7.00;99.90;;;;;;5090965;28;20515;-45
2022/04/28 05:56:51;;;;;;;4.20;3.40;;;7.00;99.90;;;;;;5091309;28;20904;-50
2022/04/28 05:59:19;;;;;;;3.00;2.70;;;7.10;99.90;;;;;;5091167;28;20447;-45
2022/04/28 06:01:46;;;;;;;4.70;3.43;;;7.10;99.90;;;;;;5091386;28;20499;-46
2022/04/28 06:04:14;;;;;;;3.60;3.30;;;7.10;99.90;;;;;;5090963;28;20541;-46
2022/04/28 06:06:41;;;;;;;3.90;2.77;;;7.20;99.90;;;;;;5091196;28;20490;-45
2022/04/28 06:09:08;;;;;;;3.53;3.20;;;7.10;99.90;;;;;;5091010;28;20444;-46
2022/04/28 06:11:35;;;;;;;2.87;2.57;;;7.00;99.90;;;;;;5090093;28;20458;-46
2022/04/28 06:14:02;;;;;;;3.60;2.87;;;7.00;99.90;;;;;;5089501;28;20534;-48
2022/04/28 06:16:29;;;;;;;5.20;3.27;;;7.00;99.90;;;;;;5089742;28;20504;-46
2022/04/28 06:18:56;;;;;;;4.53;3.87;;;6.50;99.90;;;;;;5090117;28;20439;-46
2022/04/28 06:21:24;;;;;;;5.83;3.57;;;6.30;99.90;;;;;;5089129;28;20984;-48
2022/04/28 06:23:51;;;;;;;4.07;3.37;;;6.20;99.90;;;;;;5089371;28;20485;-46
2022/04/28 06:26:18;;;;;;;7.38;4.60;;;6.20;99.90;;;;;;5089742;28;20489;-46
2022/04/28 06:28:45;;;;;;;5.93;3.70;;;6.20;99.90;;;;;;5091710;28;20233;-46
2022/04/28 06:31:12;;;;;;;4.57;4.17;;;6.30;99.90;;;;;;5095074;28;20443;-46
2022/04/28 06:33:41;;;;;;;4.83;3.80;;;6.30;99.90;;;;;;5094844;28;20482;-46
2022/04/28 06:36:08;;;;;;;5.40;4.20;;;5.80;99.90;;;;;;5095012;28;20483;-46
2022/04/28 06:38:36;;;;;;;5.27;4.77;;;5.60;99.90;;;;;;5094761;28;20527;-45
2022/04/28 06:41:04;;;;;;;5.60;4.87;;;5.60;99.90;;;;;;5094793;28;20982;-46
2022/04/28 06:43:32;;;;;;;4.90;4.37;;;5.80;99.90;;;;;;5094501;28;20462;-46
2022/04/28 06:46:14;;;;;;;5.30;4.83;;;6.00;99.90;;;;;;5094848;28;20435;-47
2022/04/28 06:48:41;;;;;;;4.33;3.93;;;6.20;99.90;;;;;;5094740;28;20459;-46
2022/04/28 06:51:08;;;;;;;4.07;3.67;;;6.40;99.90;;;;;;5094607;28;20447;-46
2022/04/28 06:53:38;;;;;;;3.60;3.27;;;6.50;99.90;;;;;;5094358;28;20486;-46
2022/04/28 06:56:06;;;;;;;4.60;4.20;;;6.80;99.90;;;;;;5094731;28;20470;-46
2022/04/28 06:58:34;;;;;;;6.37;5.20;;;6.90;99.90;;;;;;5094544;28;20471;-47
2022/04/28 07:01:00;;;;;;;5.30;4.00;;;7.00;99.90;;;;;;5093732;28;20980;-45
2022/04/28 07:03:27;;;;;;;3.97;3.57;;;7.10;99.90;;;;;;5092867;28;20442;-46
2022/04/28 07:05:54;;;;;;;4.83;4.40;;;7.30;99.90;;;;;;5092875;28;20531;-46
2022/04/28 07:08:21;;;;;;;4.00;3.60;;;7.50;99.90;;;;;;5092735;28;20534;-46
2022/04/28 07:10:50;;;;;;;3.93;3.53;;;7.60;99.90;;;;;;5092888;28;20818;-46
2022/04/28 07:13:17;;;;;;;4.03;3.70;;;7.70;99.90;;;;;;5092468;28;21004;-46
2022/04/28 07:15:44;;;;;;;3.43;3.00;;;7.90;99.90;;;;;;5093084;28;20471;-49
2022/04/28 07:18:11;;;;;;;7.87;2.80;;;8.10;99.90;;;;;;5094228;28;20498;-46
2022/04/28 07:20:39;;;;;;;5.20;3.40;;;8.40;99.90;;;;;;5093874;28;20987;-48
2022/04/28 07:23:06;;;;;;;4.63;3.00;;;8.60;99.90;;;;;;5093826;28;20438;-46
2022/04/28 07:25:33;;;;;;;3.53;3.10;;;8.80;99.90;;;;;;5094264;28;20442;-47
2022/04/28 07:28:01;;;;;;;3.13;2.67;;;9.30;99.90;;;;;;5092617;28;20487;-48
2022/04/28 07:30:28;;;;;;;3.10;2.60;;;9.30;99.90;;;;;;5092564;28;20809;-46
2022/04/28 07:32:55;;;;;;;3.13;2.83;;;9.50;99.90;;;;;;5092723;28;20876;-47
2022/04/28 07:35:24;;;;;;;3.40;2.93;;;9.80;99.90;;;;;;5092249;28;20979;-47
2022/04/28 07:37:52;;;;;;;4.20;3.00;;;9.70;99.90;;;;;;5092343;28;20465;-48
2022/04/28 07:40:19;;;;;;;31.47;22.30;;;9.70;99.90;;;;;;5091505;28;20471;-46
2022/04/28 07:42:46;;;;;;;3.40;3.10;;;10.20;99.90;;;;;;5093231;28;20439;-46
2022/04/28 07:45:15;;;;;;;3.50;2.50;;;10.60;99.90;;;;;;5093744;28;20497;-46
2022/04/28 07:47:42;;;;;;;3.20;2.90;;;11.00;99.90;;;;;;5093478;28;20832;-46
2022/04/28 07:50:10;;;;;;;3.30;2.90;;;11.10;99.90;;;;;;5093269;28;20443;-46
2022/04/28 07:52:37;;;;;;;80.93;40.70;;;10.80;99.90;;;;;;5093423;28;20452;-46
2022/04/28 07:55:05;;;;;;;169.03;47.20;;;12.60;99.90;;;;;;5093434;28;20558;-46
2022/04/28 07:57:33;;;;;;;91.97;36.17;;;14.80;99.90;;;;;;5091859;28;20495;-47
2022/04/28 08:00:00;;;;;;;3.20;2.53;;;16.60;99.90;;;;;;5091992;28;20440;-49
2022/04/28 08:02:29;;;;;;;3.27;2.70;;;17.00;99.90;;;;;;5091632;28;20439;-46
2022/04/28 08:04:56;;;;;;;4.93;3.30;;;17.10;99.10;;;;;;5092307;28;20526;-47
2022/04/28 08:07:23;;;;;;;339.67;102.20;;;17.40;97.60;;;;;;5091899;28;20498;-47
2022/04/28 08:09:50;;;;;;;53.20;19.57;;;17.30;97.80;;;;;;5091840;28;20816;-46
2022/04/28 08:12:17;;;;;;;3.10;2.40;;;17.60;99.30;;;;;;5092595;28;20538;-54
2022/04/28 08:14:45;;;;;;;3.83;2.93;;;18.80;93.90;;;;;;5093231;28;20478;-47
2022/04/28 08:17:12;;;;;;;333.30;103.90;;;19.20;91.50;;;;;;5093542;28;20494;-47
2022/04/28 08:19:40;;;;;;;3.40;3.10;;;19.20;93.30;;;;;;5092801;28;20473;-46
2022/04/28 08:22:08;;;;;;;5.70;4.77;;;18.90;90.80;;;;;;5092211;28;20817;-47
2022/04/28 08:24:35;;;;;;;3.97;3.50;;;19.10;86.20;;;;;;5092600;28;20516;-47
2022/04/28 08:27:03;;;;;;;9.70;5.70;;;18.00;89.70;;;;;;5092817;28;20459;-47
2022/04/28 08:29:29;;;;;;;12.93;6.00;;;17.40;90.60;;;;;;5093000;28;20492;-47
2022/04/28 08:31:56;;;;;;;3.97;3.23;;;16.70;91.90;;;;;;5092979;28;20471;-47
2022/04/28 08:34:23;;;;;;;3.57;3.30;;;15.70;93.30;;;;;;5092660;28;20475;-47
2022/04/28 08:36:52;;;;;;;2.93;2.57;;;14.40;96.50;;;;;;5092611;28;20479;-47
2022/04/28 08:39:19;;;;;;;3.10;2.67;;;13.80;97.00;;;;;;5090859;28;20847;-50
2022/04/28 08:41:47;;;;;;;3.30;2.97;;;13.60;97.20;;;;;;5091123;28;20444;-47
2022/04/28 08:44:17;;;;;;;3.93;2.77;;;13.70;98.30;;;;;;5090754;28;21119;-48
2022/04/28 08:46:54;;;;;;;4.60;3.20;;;13.90;98.10;;;;;;5091016;28;20451;-47
2022/04/28 08:49:23;;;;;;;3.53;3.23;;;13.10;98.40;;;;;;5090983;28;20443;-46
2022/04/28 08:51:55;;;;;;;2.63;2.40;;;13.20;98.80;;;;;;5090874;28;20481;-47
2022/04/28 08:54:24;;;;;;;4.53;2.90;;;13.50;99.20;;;;;;5091926;28;20504;-46
2022/04/28 08:56:53;;;;;;;2.67;2.47;;;13.90;99.70;;;;;;5092323;28;20536;-47
2022/04/28 08:59:20;;;;;;;3.00;2.70;;;14.20;99.90;;;;;;5092212;28;20440;-47
2022/04/28 09:01:47;;;;;;;6.00;3.30;;;14.30;97.90;;;;;;5091899;28;20881;-49
2022/04/28 09:04:14;;;;;;;3.13;2.83;;;14.30;98.30;;;;;;5091645;28;20857;-46
2022/04/28 09:06:43;;;;;;;3.70;3.10;;;14.40;99.60;;;;;;5091559;28;20516;-46
2022/04/28 09:09:12;;;;;;;3.53;2.50;;;14.60;99.30;;;;;;5090417;28;20868;-46
2022/04/28 09:11:42;;;;;;;3.17;2.87;;;14.70;98.70;;;;;;5090583;28;20439;-49
2022/04/28 09:14:13;;;;;;;4.03;3.63;;;14.50;98.10;;;;;;5090088;28;20962;-47
2022/04/28 09:16:43;;;;;;;6.60;3.40;;;14.50;99.60;;;;;;5090339;28;20483;-47
2022/04/28 09:19:11;;;;;;;6.47;3.17;;;14.80;99.90;;;;;;5090269;28;20439;-50
2022/04/28 09:21:38;;;;;;;5.40;3.70;;;15.10;99.90;;;;;;5089484;28;20986;-48
2022/04/28 09:24:06;;;;;;;8.27;3.23;;;15.20;99.80;;;;;;5091548;28;20827;-46
2022/04/28 09:26:35;;;;;;;5.13;3.93;;;15.20;99.90;;;;;;5091651;28;20431;-47
2022/04/28 09:29:03;;;;;;;4.67;3.40;;;14.90;99.10;;;;;;5091123;28;20805;-46
2022/04/28 09:31:33;;;;;;;4.00;3.60;;;14.70;99.90;;;;;;5091595;28;20493;-46
2022/04/28 09:34:05;;;;;;;3.73;3.43;;;14.40;99.50;;;;;;5091448;28;20443;-47
2022/04/28 09:36:32;;;;;;;3.87;3.50;;;14.50;99.90;;;;;;5091135;28;20800;-48
2022/04/28 09:38:59;;;;;;;4.30;3.90;;;14.40;99.90;;;;;;5089962;28;20435;-47
2022/04/28 09:44:13;;;;;;;3.47;3.17;;;14.40;99.90;;;;;;5090084;28;20800;-47
2022/04/28 09:46:43;;;;;;;9.30;4.23;;;14.30;99.90;;;;;;5090122;28;20459;-49
2022/04/28 09:49:11;;;;;;;3.90;3.50;;;14.80;99.90;;;;;;5089996;28;20819;-48
2022/04/28 09:51:40;;;;;;;5.03;4.07;;;14.80;99.90;;;;;;5089777;28;20475;-47
2022/04/28 09:54:10;;;;;;;4.00;3.47;;;14.90;99.90;;;;;;5090859;28;20435;-47
2022/04/28 09:56:38;;;;;;;4.20;3.80;;;15.00;99.90;;;;;;5091260;28;20475;-46
2022/04/28 09:59:09;;;;;;;6.63;3.60;;;15.20;99.90;;;;;;5089981;28;20488;-47
2022/04/28 10:01:38;;;;;;;4.27;3.87;;;15.30;99.90;;;;;;5090001;28;20447;-48
2022/04/28 10:04:06;;;;;;;7.63;3.93;;;15.00;99.90;;;;;;5089149;28;20435;-47
2022/04/28 10:06:35;;;;;;;4.40;3.40;;;15.20;99.00;;;;;;5089680;28;20468;-48
2022/04/28 10:09:05;;;;;;;12.10;3.40;;;15.00;99.90;;;;;;5089940;28;20496;-46
2022/04/28 10:11:33;;;;;;;3.40;2.73;;;15.20;99.30;;;;;;5089908;28;20435;-48
2022/04/28 10:14:00;;;;;;;9.40;3.37;;;15.30;97.90;;;;;;5090764;28;20448;-47
2022/04/28 10:16:28;;;;;;;6.63;3.03;;;15.30;98.80;;;;;;5090637;28;20475;-47
2022/04/28 10:19:03;;;;;;;3.10;2.37;;;15.50;97.70;;;;;;5091013;28;20471;-49
2022/04/28 10:21:34;;;;;;;11.70;4.10;;;15.40;97.80;;;;;;5090811;28;20829;-47
2022/04/28 10:32:55;;;;;;;4.80;2.73;;;15.70;94.80;;;;;;5089570;28;20414;-47
2022/04/28 10:35:41;;;;;;;3.30;2.70;;;15.80;97.60;;;;;;5089515;28;20943;-49
2022/04/28 10:38:12;;;;;;;11.80;3.00;;;15.80;95.40;;;;;;5089318;28;20463;-47
2022/04/28 10:40:41;;;;;;;3.17;2.40;;;16.00;96.10;;;;;;5090968;28;20537;-47
2022/04/28 10:43:27;;;;;;;2.40;2.20;;;16.00;94.50;;;;;;5089390;28;20997;-46
2022/04/28 10:45:55;;;;;;;2.13;1.93;;;16.10;94.90;;;;;;5089888;28;20488;-47
2022/04/28 10:48:29;;;;;;;2.60;2.37;;;16.10;94.90;;;;;;5090767;28;20459;-47
2022/04/28 10:51:11;;;;;;;2.90;2.60;;;16.30;94.50;;;;;;5090869;28;20430;-47
2022/04/28 10:54:07;;;;;;;3.23;2.93;;;16.30;94.60;;;;;;5090287;28;20446;-47
2022/04/28 10:57:10;;;;;;;31.13;6.00;;;16.30;94.80;;;;;;5090366;28;20525;-48
2022/04/28 10:59:39;;;;;;;6.30;3.40;;;16.60;93.70;;;;;;5091209;28;20439;-46
2022/04/28 11:02:42;;;;;;;6.97;2.60;;;16.60;91.60;;;;;;5090348;28;20489;-48
2022/04/28 11:05:32;;;;;;;4.83;3.07;;;16.20;93.10;;;;;;5090507;28;20446;-46
2022/04/28 11:08:01;;;;;;;2.80;2.37;;;16.10;94.00;;;;;;5090572;28;20463;-47
2022/04/28 11:10:29;;;;;;;3.60;2.03;;;16.10;95.40;;;;;;5090862;28;20459;-47
2022/04/28 11:12:56;;;;;;;2.33;2.13;;;16.10;95.70;;;;;;5090457;28;20462;-47
2022/04/28 11:15:25;;;;;;;3.00;2.30;;;16.50;93.10;;;;;;5090989;28;20442;-50
2022/04/28 11:17:52;;;;;;;3.13;2.50;;;16.70;96.30;;;;;;5093922;28;20898;-47
2022/04/28 11:20:21;;;;;;;2.27;2.03;;;16.50;95.10;;;;;;5094190;28;20440;-50
2022/04/28 11:22:50;;;;;;;80.83;10.20;;;16.60;94.00;;;;;;5093550;28;20504;-46
2022/04/28 11:25:21;;;;;;;5.17;2.13;;;16.60;91.50;;;;;;5094286;28;20885;-46
2022/04/28 11:27:50;;;;;;;2.43;2.10;;;16.60;86.20;;;;;;5093392;28;20489;-50
2022/04/28 11:30:19;;;;;;;2.47;1.93;;;16.60;89.80;;;;;;5093890;28;20970;-47
2022/04/28 11:32:49;;;;;;;5.60;2.87;;;16.50;90.40;;;;;;5093694;28;20522;-47
2022/04/28 11:35:16;;;;;;;2.80;2.20;;;16.60;91.60;;;;;;5092822;28;20483;-48
2022/04/28 11:37:43;;;;;;;2.70;1.80;;;16.40;91.90;;;;;;5091688;28;20558;-46
2022/04/28 11:40:14;;;;;;;5.37;2.30;;;16.40;92.20;;;;;;5092181;28;20470;-50
2022/04/28 11:42:43;;;;;;;4.97;2.40;;;16.50;86.10;;;;;;5093417;28;20474;-47
2022/04/28 11:45:10;;;;;;;2.47;1.70;;;16.80;89.30;;;;;;5094119;28;20523;-47
2022/04/28 11:47:44;;;;;;;5.40;2.20;;;16.60;89.40;;;;;;5093422;28;20463;-47
2022/04/28 11:50:20;;;;;;;1.97;1.77;;;16.70;84.00;;;;;;5093237;28;20479;-46
2022/04/28 11:52:59;;;;;;;24.60;3.80;;;16.50;89.70;;;;;;5092596;28;20439;-46
2022/04/28 11:55:27;;;;;;;38.30;5.60;;;16.80;88.50;;;;;;5093220;28;20454;-48
2022/04/28 11:57:56;;;;;;;2.10;1.80;;;16.70;81.70;;;;;;5109947;22;20502;-51
2022/04/28 12:00:26;;;;;;;1.63;1.53;;;16.50;84.20;;;;;;5072660;28;20976;-51
2022/04/28 12:02:54;;;;;;;3.50;1.70;;;16.50;84.50;;;;;;5072415;28;20490;-50
2022/04/28 12:05:22;;;;;;;2.17;1.97;;;16.70;88.00;;;;;;5072454;28;20450;-51
2022/04/28 12:07:54;;;;;;;2.60;1.90;;;17.00;84.20;;;;;;5072033;28;20468;-50
2022/04/28 12:15:59;;;;;;;114.07;14.93;;;17.00;83.30;;;;;;5072719;28;20431;-50
2022/04/28 12:21:18;;;;;;;2.13;1.63;;;16.90;81.80;;;;;;5072319;28;20493;-50
2022/04/28 12:23:47;;;;;;;1.63;1.53;;;16.90;88.20;;;;;;5071714;28;20875;-50
2022/04/28 12:26:14;;;;;;;2.50;1.37;;;17.20;83.40;;;;;;5071952;28;20933;-50
2022/04/28 12:28:44;;;;;;;2.00;1.63;;;17.20;83.50;;;;;;5072158;28;20518;-50
2022/04/28 12:31:12;;;;;;;2.00;1.80;;;17.00;83.40;;;;;;5072463;28;20481;-51
2022/04/28 12:33:40;;;;;;;1.60;1.40;;;17.20;82.20;;;;;;5072094;28;20574;-50
2022/04/28 12:36:11;;;;;;;3.50;1.60;;;17.40;81.90;;;;;;5072651;28;20487;-50
2022/04/28 12:38:44;;;;;;;2.80;1.30;;;17.40;80.80;;;;;;5072467;28;20548;-51
2022/04/28 12:41:17;;;;;;;2.57;1.73;;;17.30;78.70;;;;;;5072406;28;20479;-50
2022/04/28 12:43:49;;;;;;;15.47;2.90;;;17.20;83.10;;;;;;5072115;28;20476;-50
2022/04/28 12:46:21;;;;;;;1.73;1.63;;;17.00;82.30;;;;;;5072592;28;20437;-50
2022/04/28 12:48:56;;;;;;;22.37;4.70;;;17.10;81.90;;;;;;5072303;28;20900;-50
2022/04/28 12:51:26;;;;;;;3.80;2.50;;;17.40;78.20;;;;;;5072305;28;20487;-51
2022/04/28 12:53:55;;;;;;;2.90;1.37;;;17.20;80.00;;;;;;5071896;28;20527;-50
2022/04/28 12:56:28;;;;;;;2.43;1.67;;;17.40;84.70;;;;;;5072022;28;20480;-51
2022/04/28 12:58:59;;;;;;;8.43;1.90;;;17.50;83.00;;;;;;5071730;28;20476;-51
2022/04/28 13:01:27;;;;;;;2.33;1.80;;;17.40;79.80;;;;;;5071850;28;20563;-50
2022/04/28 13:03:56;;;;;;;3.00;1.70;;;17.50;84.90;;;;;;5071647;28;20472;-51
2022/04/28 13:06:24;;;;;;;1.47;1.37;;;17.40;76.70;;;;;;5071654;28;20502;-51
2022/04/28 13:08:52;;;;;;;1.80;1.60;;;17.30;85.20;;;;;;5071786;28;20518;-50
2022/04/28 13:11:22;;;;;;;1.30;1.20;;;17.40;83.80;;;;;;5071839;28;20537;-51
2022/04/28 13:13:49;;;;;;;2.23;1.77;;;17.50;77.40;;;;;;5071898;28;20448;-52
2022/04/28 13:16:18;;;;;;;3.50;2.40;;;17.30;77.60;;;;;;5071727;28;20948;-50
2022/04/28 13:18:45;;;;;;;2.27;1.73;;;17.30;81.80;;;;;;5071401;28;21036;-51
2022/04/28 13:21:12;;;;;;;2.33;1.80;;;17.30;75.40;;;;;;5071382;28;20479;-50
2022/04/28 13:23:40;;;;;;;3.90;1.60;;;17.40;78.90;;;;;;5071306;28;20972;-51
2022/04/28 13:26:09;;;;;;;2.80;1.70;;;17.40;77.60;;;;;;5071227;28;20472;-51
2022/04/28 13:28:36;;;;;;;5.27;2.20;;;17.30;76.40;;;;;;5069382;28;20523;-51
2022/04/28 13:31:04;;;;;;;2.10;1.90;;;17.30;78.80;;;;;;5069819;28;20472;-51
2022/04/28 13:33:33;;;;;;;2.40;1.43;;;17.20;78.90;;;;;;5070293;28;20814;-51